Nashville, Tennessee
Traffic Map
Current Weather Conditions
Nashville, Tennessee
Broken Clouds
Broken Clouds
20°
Feels Like: 20°
Wind Chill: 20° Ceiling: 20000
Heat Index: 20° Visibility: 10mi
Dew Point: 19° Wind: 5mph
Humidity: 93% Direction: 170° (S)
Pressure: 29.98in Gusts: 0mph
Raw Report DataKBNA 190953Z 17004KT 10SM BKN200 20/19 A2998 RMK AO2 SLP145 T02000189
Traffic Incident Summary
Active as of:
Severity:
Category:
InformationThere was an issue retrieving the traffic information for this location. Please try a different location or try again shortly.
Advertisements